sensor_id;sensor_type;location;lat;lon;timestamp;temperature;humidity
21244;DHT22;10780;50.942;4.028;2023-05-29T00:01:20;14.40;99.90
21244;DHT22;10780;50.942;4.028;2023-05-29T00:03:46;14.30;99.90
21244;DHT22;10780;50.942;4.028;2023-05-29T00:06:12;14.30;99.90
21244;DHT22;10780;50.942;4.028;2023-05-29T00:08:38;14.40;99.90
21244;DHT22;10780;50.942;4.028;2023-05-29T00:11:04;14.30;99.90
21244;DHT22;10780;50.942;4.028;2023-05-29T00:13:30;14.30;99.90
21244;DHT22;10780;50.942;4.028;2023-05-29T00:15:56;14.20;99.90
21244;DHT22;10780;50.942;4.028;2023-05-29T00:18:21;14.10;99.90
21244;DHT22;10780;50.942;4.028;2023-05-29T00:20:47;14.20;99.90
21244;DHT22;10780;50.942;4.028;2023-05-29T00:23:13;14.10;99.90
21244;DHT22;10780;50.942;4.028;2023-05-29T00:25:39;14.00;99.90
21244;DHT22;10780;50.942;4.028;2023-05-29T00:28:06;14.10;99.90
21244;DHT22;10780;50.942;4.028;2023-05-29T00:30:32;14.10;99.90
21244;DHT22;10780;50.942;4.028;2023-05-29T00:32:58;14.00;99.90
21244;DHT22;10780;50.942;4.028;2023-05-29T00:35:24;13.90;99.90
21244;DHT22;10780;50.942;4.028;2023-05-29T00:37:50;13.90;99.90
21244;DHT22;10780;50.942;4.028;2023-05-29T00:40:15;13.90;99.90
21244;DHT22;10780;50.942;4.028;2023-05-29T00:42:41;13.90;99.90
21244;DHT22;10780;50.942;4.028;2023-05-29T00:45:07;13.90;99.90
21244;DHT22;10780;50.942;4.028;2023-05-29T00:47:33;13.90;99.90
21244;DHT22;10780;50.942;4.028;2023-05-29T00:49:59;13.80;99.90
21244;DHT22;10780;50.942;4.028;2023-05-29T00:52:25;13.80;99.90
21244;DHT22;10780;50.942;4.028;2023-05-29T00:54:51;13.70;99.90
21244;DHT22;10780;50.942;4.028;2023-05-29T00:57:18;13.80;99.90
21244;DHT22;10780;50.942;4.028;2023-05-29T00:59:45;13.80;99.90
21244;DHT22;10780;50.942;4.028;2023-05-29T01:02:12;13.70;99.90
21244;DHT22;10780;50.942;4.028;2023-05-29T01:04:39;13.70;99.90
21244;DHT22;10780;50.942;4.028;2023-05-29T01:07:05;13.70;99.90
21244;DHT22;10780;50.942;4.028;2023-05-29T01:09:32;13.60;99.90
21244;DHT22;10780;50.942;4.028;2023-05-29T01:15:04;13.40;99.90
21244;DHT22;10780;50.942;4.028;2023-05-29T01:28:52;13.30;99.90
21244;DHT22;10780;50.942;4.028;2023-05-29T01:31:22;13.30;99.90
21244;DHT22;10780;50.942;4.028;2023-05-29T01:33:55;13.30;99.90
21244;DHT22;10780;50.942;4.028;2023-05-29T01:36:22;13.30;99.90
21244;DHT22;10780;50.942;4.028;2023-05-29T01:38:52;13.30;99.90
21244;DHT22;10780;50.942;4.028;2023-05-29T01:41:19;13.20;99.90
21244;DHT22;10780;50.942;4.028;2023-05-29T01:43:47;13.20;99.90
21244;DHT22;10780;50.942;4.028;2023-05-29T01:46:14;13.10;99.90
21244;DHT22;10780;50.942;4.028;2023-05-29T01:48:44;13.10;99.90
21244;DHT22;10780;50.942;4.028;2023-05-29T01:51:10;13.00;99.90
21244;DHT22;10780;50.942;4.028;2023-05-29T01:53:37;13.00;99.90
21244;DHT22;10780;50.942;4.028;2023-05-29T01:56:05;13.00;99.90
21244;DHT22;10780;50.942;4.028;2023-05-29T01:58:31;12.90;99.90
21244;DHT22;10780;50.942;4.028;2023-05-29T02:00:57;12.90;99.90
21244;DHT22;10780;50.942;4.028;2023-05-29T02:03:23;12.80;99.90
21244;DHT22;10780;50.942;4.028;2023-05-29T02:05:49;12.70;99.90
21244;DHT22;10780;50.942;4.028;2023-05-29T02:08:15;12.70;99.90
21244;DHT22;10780;50.942;4.028;2023-05-29T02:10:41;12.70;99.90
21244;DHT22;10780;50.942;4.028;2023-05-29T02:13:06;12.70;99.90
21244;DHT22;10780;50.942;4.028;2023-05-29T02:15:32;12.60;99.90
21244;DHT22;10780;50.942;4.028;2023-05-29T02:17:58;12.60;99.90
21244;DHT22;10780;50.942;4.028;2023-05-29T02:20:26;12.50;99.90
21244;DHT22;10780;50.942;4.028;2023-05-29T02:22:52;12.50;99.90
21244;DHT22;10780;50.942;4.028;2023-05-29T02:25:18;12.50;99.90
21244;DHT22;10780;50.942;4.028;2023-05-29T02:27:44;12.40;99.90
21244;DHT22;10780;50.942;4.028;2023-05-29T02:30:10;12.50;99.90
21244;DHT22;10780;50.942;4.028;2023-05-29T02:32:36;12.50;99.90
21244;DHT22;10780;50.942;4.028;2023-05-29T02:35:02;12.40;99.90
21244;DHT22;10780;50.942;4.028;2023-05-29T02:37:28;12.40;99.90
21244;DHT22;10780;50.942;4.028;2023-05-29T02:39:54;12.40;99.90
21244;DHT22;10780;50.942;4.028;2023-05-29T02:42:20;12.40;99.90
21244;DHT22;10780;50.942;4.028;2023-05-29T02:44:45;12.40;99.90
21244;DHT22;10780;50.942;4.028;2023-05-29T02:47:11;12.30;99.90
21244;DHT22;10780;50.942;4.028;2023-05-29T02:49:37;12.20;99.90
21244;DHT22;10780;50.942;4.028;2023-05-29T02:52:02;12.20;99.90
21244;DHT22;10780;50.942;4.028;2023-05-29T02:54:28;12.10;99.90
21244;DHT22;10780;50.942;4.028;2023-05-29T02:56:54;12.10;99.90
21244;DHT22;10780;50.942;4.028;2023-05-29T02:59:19;12.10;99.90
21244;DHT22;10780;50.942;4.028;2023-05-29T03:01:45;12.10;99.90
21244;DHT22;10780;50.942;4.028;2023-05-29T03:04:12;12.10;99.90
21244;DHT22;10780;50.942;4.028;2023-05-29T03:06:38;12.00;99.90
21244;DHT22;10780;50.942;4.028;2023-05-29T03:09:03;12.00;99.90
21244;DHT22;10780;50.942;4.028;2023-05-29T03:11:32;12.00;99.90
21244;DHT22;10780;50.942;4.028;2023-05-29T03:13:58;11.90;99.90
21244;DHT22;10780;50.942;4.028;2023-05-29T03:16:24;11.90;99.90
21244;DHT22;10780;50.942;4.028;2023-05-29T03:18:50;11.90;99.90
21244;DHT22;10780;50.942;4.028;2023-05-29T03:21:16;11.90;99.90
21244;DHT22;10780;50.942;4.028;2023-05-29T03:23:42;11.90;99.90
21244;DHT22;10780;50.942;4.028;2023-05-29T03:26:08;11.90;99.90
21244;DHT22;10780;50.942;4.028;2023-05-29T03:28:33;11.90;99.90
21244;DHT22;10780;50.942;4.028;2023-05-29T03:31:00;11.80;99.90
21244;DHT22;10780;50.942;4.028;2023-05-29T03:33:25;11.80;99.90
21244;DHT22;10780;50.942;4.028;2023-05-29T03:35:51;11.80;99.90
21244;DHT22;10780;50.942;4.028;2023-05-29T03:38:17;11.80;99.90
21244;DHT22;10780;50.942;4.028;2023-05-29T03:40:42;11.80;99.90
21244;DHT22;10780;50.942;4.028;2023-05-29T03:43:08;11.80;99.90
21244;DHT22;10780;50.942;4.028;2023-05-29T03:45:33;11.80;99.90
21244;DHT22;10780;50.942;4.028;2023-05-29T03:47:59;11.80;99.90
21244;DHT22;10780;50.942;4.028;2023-05-29T03:50:25;11.80;99.90
21244;DHT22;10780;50.942;4.028;2023-05-29T03:52:50;11.80;99.90
21244;DHT22;10780;50.942;4.028;2023-05-29T03:55:16;11.80;99.90
21244;DHT22;10780;50.942;4.028;2023-05-29T03:57:42;11.80;99.90
21244;DHT22;10780;50.942;4.028;2023-05-29T04:00:08;11.80;99.90
21244;DHT22;10780;50.942;4.028;2023-05-29T04:02:36;11.80;99.90
21244;DHT22;10780;50.942;4.028;2023-05-29T04:05:03;11.70;99.90
21244;DHT22;10780;50.942;4.028;2023-05-29T04:07:29;11.70;99.90
21244;DHT22;10780;50.942;4.028;2023-05-29T04:09:54;11.70;99.90
21244;DHT22;10780;50.942;4.028;2023-05-29T04:12:20;11.70;99.90
21244;DHT22;10780;50.942;4.028;2023-05-29T04:14:46;11.70;99.90
21244;DHT22;10780;50.942;4.028;2023-05-29T04:17:11;11.60;99.90
21244;DHT22;10780;50.942;4.028;2023-05-29T04:19:37;11.70;99.90
21244;DHT22;10780;50.942;4.028;2023-05-29T04:22:02;11.70;99.90
21244;DHT22;10780;50.942;4.028;2023-05-29T04:24:28;11.70;99.90
21244;DHT22;10780;50.942;4.028;2023-05-29T04:26:57;11.70;99.90
21244;DHT22;10780;50.942;4.028;2023-05-29T04:29:26;11.70;99.90
21244;DHT22;10780;50.942;4.028;2023-05-29T04:31:51;11.60;99.90
21244;DHT22;10780;50.942;4.028;2023-05-29T04:34:17;11.60;99.90
21244;DHT22;10780;50.942;4.028;2023-05-29T04:36:43;11.60;99.90
21244;DHT22;10780;50.942;4.028;2023-05-29T04:39:10;11.70;99.90
21244;DHT22;10780;50.942;4.028;2023-05-29T04:41:35;11.80;99.90
21244;DHT22;10780;50.942;4.028;2023-05-29T04:44:03;11.80;99.90
21244;DHT22;10780;50.942;4.028;2023-05-29T04:46:29;11.80;99.90
21244;DHT22;10780;50.942;4.028;2023-05-29T04:48:55;11.80;99.90
21244;DHT22;10780;50.942;4.028;2023-05-29T04:51:22;11.80;99.90
21244;DHT22;10780;50.942;4.028;2023-05-29T04:53:49;11.80;99.90
21244;DHT22;10780;50.942;4.028;2023-05-29T04:56:17;11.80;99.90
21244;DHT22;10780;50.942;4.028;2023-05-29T04:58:43;11.90;99.90
21244;DHT22;10780;50.942;4.028;2023-05-29T05:01:09;11.80;99.90
21244;DHT22;10780;50.942;4.028;2023-05-29T05:03:42;11.90;99.90
21244;DHT22;10780;50.942;4.028;2023-05-29T05:06:11;11.90;99.90
21244;DHT22;10780;50.942;4.028;2023-05-29T05:08:38;12.00;99.90
21244;DHT22;10780;50.942;4.028;2023-05-29T05:11:04;11.90;99.90
21244;DHT22;10780;50.942;4.028;2023-05-29T05:13:31;11.90;99.90
21244;DHT22;10780;50.942;4.028;2023-05-29T05:15:57;12.00;99.90
21244;DHT22;10780;50.942;4.028;2023-05-29T05:18:23;12.10;99.90
21244;DHT22;10780;50.942;4.028;2023-05-29T05:20:48;12.00;99.90
21244;DHT22;10780;50.942;4.028;2023-05-29T05:23:14;12.10;99.90
21244;DHT22;10780;50.942;4.028;2023-05-29T05:25:40;12.10;99.90
21244;DHT22;10780;50.942;4.028;2023-05-29T05:28:05;12.10;99.90
21244;DHT22;10780;50.942;4.028;2023-05-29T05:30:31;12.10;99.90
21244;DHT22;10780;50.942;4.028;2023-05-29T05:32:57;12.20;99.90
21244;DHT22;10780;50.942;4.028;2023-05-29T05:35:24;12.20;99.90
21244;DHT22;10780;50.942;4.028;2023-05-29T05:37:49;12.30;99.90
21244;DHT22;10780;50.942;4.028;2023-05-29T05:40:15;12.20;99.90
21244;DHT22;10780;50.942;4.028;2023-05-29T05:42:41;12.30;99.90
21244;DHT22;10780;50.942;4.028;2023-05-29T05:45:07;12.40;99.90
21244;DHT22;10780;50.942;4.028;2023-05-29T05:47:33;12.50;99.90
21244;DHT22;10780;50.942;4.028;2023-05-29T05:49:59;12.60;99.90
21244;DHT22;10780;50.942;4.028;2023-05-29T05:52:24;12.60;99.90
21244;DHT22;10780;50.942;4.028;2023-05-29T05:54:51;12.70;99.90
21244;DHT22;10780;50.942;4.028;2023-05-29T05:57:17;12.70;99.90
21244;DHT22;10780;50.942;4.028;2023-05-29T05:59:42;12.80;99.90
21244;DHT22;10780;50.942;4.028;2023-05-29T06:02:08;12.90;99.90
21244;DHT22;10780;50.942;4.028;2023-05-29T06:04:34;13.00;99.90
21244;DHT22;10780;50.942;4.028;2023-05-29T06:06:59;13.00;99.90
21244;DHT22;10780;50.942;4.028;2023-05-29T06:09:25;13.20;99.90
21244;DHT22;10780;50.942;4.028;2023-05-29T06:11:51;13.40;99.90
21244;DHT22;10780;50.942;4.028;2023-05-29T06:14:17;13.50;99.90
21244;DHT22;10780;50.942;4.028;2023-05-29T06:16:43;13.60;99.90
21244;DHT22;10780;50.942;4.028;2023-05-29T06:19:09;13.60;99.90
21244;DHT22;10780;50.942;4.028;2023-05-29T06:21:34;13.50;99.90
21244;DHT22;10780;50.942;4.028;2023-05-29T06:24:00;13.40;99.90
21244;DHT22;10780;50.942;4.028;2023-05-29T06:26:26;13.50;99.90
21244;DHT22;10780;50.942;4.028;2023-05-29T06:28:52;13.50;99.90
21244;DHT22;10780;50.942;4.028;2023-05-29T06:31:18;13.60;99.90
21244;DHT22;10780;50.942;4.028;2023-05-29T06:33:44;13.70;99.90
21244;DHT22;10780;50.942;4.028;2023-05-29T06:36:10;13.80;99.90
21244;DHT22;10780;50.942;4.028;2023-05-29T06:38:36;13.80;99.90
21244;DHT22;10780;50.942;4.028;2023-05-29T06:41:02;13.80;99.90
21244;DHT22;10780;50.942;4.028;2023-05-29T06:43:28;13.80;99.90
21244;DHT22;10780;50.942;4.028;2023-05-29T06:45:54;13.80;99.90
21244;DHT22;10780;50.942;4.028;2023-05-29T06:48:20;13.90;99.90
21244;DHT22;10780;50.942;4.028;2023-05-29T06:50:49;14.00;99.90
21244;DHT22;10780;50.942;4.028;2023-05-29T06:53:15;14.10;99.90
21244;DHT22;10780;50.942;4.028;2023-05-29T06:55:40;14.10;99.90
21244;DHT22;10780;50.942;4.028;2023-05-29T06:58:06;14.20;99.90
21244;DHT22;10780;50.942;4.028;2023-05-29T07:00:32;14.40;99.90
21244;DHT22;10780;50.942;4.028;2023-05-29T07:02:58;14.30;99.90
21244;DHT22;10780;50.942;4.028;2023-05-29T07:05:23;14.40;99.90
21244;DHT22;10780;50.942;4.028;2023-05-29T07:07:49;14.30;99.90
21244;DHT22;10780;50.942;4.028;2023-05-29T07:10:15;14.40;99.90
21244;DHT22;10780;50.942;4.028;2023-05-29T07:12:40;14.30;99.90
21244;DHT22;10780;50.942;4.028;2023-05-29T07:15:07;14.40;99.90
21244;DHT22;10780;50.942;4.028;2023-05-29T07:17:32;14.30;99.90
21244;DHT22;10780;50.942;4.028;2023-05-29T07:19:58;14.50;99.90
21244;DHT22;10780;50.942;4.028;2023-05-29T07:22:23;14.60;99.90
21244;DHT22;10780;50.942;4.028;2023-05-29T07:24:50;14.80;99.90
21244;DHT22;10780;50.942;4.028;2023-05-29T07:27:15;14.90;99.90
21244;DHT22;10780;50.942;4.028;2023-05-29T07:29:41;14.90;99.90
21244;DHT22;10780;50.942;4.028;2023-05-29T07:32:07;14.70;99.90
21244;DHT22;10780;50.942;4.028;2023-05-29T07:34:32;14.50;99.90
21244;DHT22;10780;50.942;4.028;2023-05-29T07:37:02;14.50;99.90
21244;DHT22;10780;50.942;4.028;2023-05-29T07:39:29;14.50;99.90
21244;DHT22;10780;50.942;4.028;2023-05-29T07:41:55;14.40;99.90
21244;DHT22;10780;50.942;4.028;2023-05-29T07:44:21;14.40;99.90
21244;DHT22;10780;50.942;4.028;2023-05-29T07:46:46;14.40;99.90
21244;DHT22;10780;50.942;4.028;2023-05-29T07:49:12;14.60;99.90
21244;DHT22;10780;50.942;4.028;2023-05-29T07:51:38;14.60;99.90
21244;DHT22;10780;50.942;4.028;2023-05-29T07:54:05;14.50;99.90
21244;DHT22;10780;50.942;4.028;2023-05-29T07:56:31;14.60;99.90
21244;DHT22;10780;50.942;4.028;2023-05-29T07:58:59;14.70;99.90
21244;DHT22;10780;50.942;4.028;2023-05-29T08:01:25;14.70;99.90
21244;DHT22;10780;50.942;4.028;2023-05-29T08:03:51;14.80;99.90
21244;DHT22;10780;50.942;4.028;2023-05-29T08:06:17;14.90;99.90
21244;DHT22;10780;50.942;4.028;2023-05-29T08:08:44;15.20;99.90
21244;DHT22;10780;50.942;4.028;2023-05-29T08:11:10;15.30;99.90
21244;DHT22;10780;50.942;4.028;2023-05-29T08:13:36;15.40;99.90
21244;DHT22;10780;50.942;4.028;2023-05-29T08:16:02;15.40;99.90
21244;DHT22;10780;50.942;4.028;2023-05-29T08:18:31;15.30;99.90
21244;DHT22;10780;50.942;4.028;2023-05-29T08:20:58;15.10;99.90
21244;DHT22;10780;50.942;4.028;2023-05-29T08:23:24;15.20;99.90
21244;DHT22;10780;50.942;4.028;2023-05-29T08:25:50;15.40;99.90
21244;DHT22;10780;50.942;4.028;2023-05-29T08:28:19;15.60;99.90
21244;DHT22;10780;50.942;4.028;2023-05-29T08:30:45;15.70;99.90
21244;DHT22;10780;50.942;4.028;2023-05-29T08:33:10;15.70;99.90
21244;DHT22;10780;50.942;4.028;2023-05-29T08:35:36;15.80;99.90
21244;DHT22;10780;50.942;4.028;2023-05-29T08:38:01;15.90;99.90
21244;DHT22;10780;50.942;4.028;2023-05-29T08:40:27;15.70;99.90
21244;DHT22;10780;50.942;4.028;2023-05-29T08:45:43;15.60;99.90
21244;DHT22;10780;50.942;4.028;2023-05-29T08:48:11;15.90;99.90
21244;DHT22;10780;50.942;4.028;2023-05-29T08:50:44;16.00;99.90
21244;DHT22;10780;50.942;4.028;2023-05-29T08:53:14;16.30;99.90
21244;DHT22;10780;50.942;4.028;2023-05-29T08:55:41;16.40;99.90
21244;DHT22;10780;50.942;4.028;2023-05-29T08:58:06;16.50;99.90
21244;DHT22;10780;50.942;4.028;2023-05-29T09:00:33;16.30;99.90
21244;DHT22;10780;50.942;4.028;2023-05-29T09:02:58;15.90;99.90
21244;DHT22;10780;50.942;4.028;2023-05-29T09:05:28;15.70;99.90
21244;DHT22;10780;50.942;4.028;2023-05-29T09:07:55;15.80;99.90
21244;DHT22;10780;50.942;4.028;2023-05-29T09:10:21;16.00;99.90
21244;DHT22;10780;50.942;4.028;2023-05-29T09:12:48;16.10;99.90
21244;DHT22;10780;50.942;4.028;2023-05-29T09:15:23;16.10;99.90
21244;DHT22;10780;50.942;4.028;2023-05-29T09:17:53;16.20;99.90
21244;DHT22;10780;50.942;4.028;2023-05-29T09:20:20;16.40;99.90
21244;DHT22;10780;50.942;4.028;2023-05-29T09:23:09;16.70;99.90
21244;DHT22;10780;50.942;4.028;2023-05-29T09:25:39;16.70;99.90
21244;DHT22;10780;50.942;4.028;2023-05-29T09:28:07;16.50;99.90
21244;DHT22;10780;50.942;4.028;2023-05-29T09:30:41;16.50;99.90
21244;DHT22;10780;50.942;4.028;2023-05-29T09:33:11;16.70;99.90
21244;DHT22;10780;50.942;4.028;2023-05-29T09:38:08;16.90;99.90
21244;DHT22;10780;50.942;4.028;2023-05-29T09:40:37;16.90;99.90
21244;DHT22;10780;50.942;4.028;2023-05-29T09:43:04;16.90;99.90
21244;DHT22;10780;50.942;4.028;2023-05-29T09:45:31;17.10;99.90
21244;DHT22;10780;50.942;4.028;2023-05-29T09:47:59;17.00;99.90
21244;DHT22;10780;50.942;4.028;2023-05-29T09:50:27;17.10;99.90
21244;DHT22;10780;50.942;4.028;2023-05-29T09:52:58;17.10;99.90
21244;DHT22;10780;50.942;4.028;2023-05-29T09:55:25;17.30;99.90
21244;DHT22;10780;50.942;4.028;2023-05-29T09:57:53;17.30;99.90
21244;DHT22;10780;50.942;4.028;2023-05-29T10:00:20;17.10;99.90
21244;DHT22;10780;50.942;4.028;2023-05-29T10:02:48;17.30;99.90
21244;DHT22;10780;50.942;4.028;2023-05-29T10:05:14;17.60;99.90
21244;DHT22;10780;50.942;4.028;2023-05-29T10:07:44;17.60;99.90
21244;DHT22;10780;50.942;4.028;2023-05-29T10:10:12;17.70;99.90
21244;DHT22;10780;50.942;4.028;2023-05-29T10:12:44;17.80;99.90
21244;DHT22;10780;50.942;4.028;2023-05-29T10:15:14;17.60;99.90
21244;DHT22;10780;50.942;4.028;2023-05-29T10:17:53;17.30;99.90
21244;DHT22;10780;50.942;4.028;2023-05-29T10:20:22;17.20;99.90
21244;DHT22;10780;50.942;4.028;2023-05-29T10:22:50;17.30;99.90
21244;DHT22;10780;50.942;4.028;2023-05-29T10:25:20;17.30;99.90
21244;DHT22;10780;50.942;4.028;2023-05-29T10:27:47;17.30;99.90
21244;DHT22;10780;50.942;4.028;2023-05-29T10:30:29;17.40;99.90
21244;DHT22;10780;50.942;4.028;2023-05-29T10:33:33;17.50;99.90
21244;DHT22;10780;50.942;4.028;2023-05-29T10:36:18;17.60;99.90
21244;DHT22;10780;50.942;4.028;2023-05-29T10:38:48;17.60;99.90
21244;DHT22;10780;50.942;4.028;2023-05-29T10:44:02;17.80;99.90
21244;DHT22;10780;50.942;4.028;2023-05-29T10:49:17;17.90;99.90
21244;DHT22;10780;50.942;4.028;2023-05-29T10:51:43;17.90;99.90
21244;DHT22;10780;50.942;4.028;2023-05-29T10:54:10;17.80;99.90
21244;DHT22;10780;50.942;4.028;2023-05-29T10:56:36;18.00;99.90
21244;DHT22;10780;50.942;4.028;2023-05-29T10:59:02;18.10;99.90
21244;DHT22;10780;50.942;4.028;2023-05-29T11:01:29;18.20;99.90
21244;DHT22;10780;50.942;4.028;2023-05-29T11:06:43;18.40;99.90
21244;DHT22;10780;50.942;4.028;2023-05-29T11:09:28;18.40;99.90
21244;DHT22;10780;50.942;4.028;2023-05-29T11:12:25;18.40;99.90
21244;DHT22;10780;50.942;4.028;2023-05-29T11:15:06;18.40;99.90
21244;DHT22;10780;50.942;4.028;2023-05-29T11:20:07;18.40;99.90
21244;DHT22;10780;50.942;4.028;2023-05-29T11:25:22;19.00;99.90
21244;DHT22;10780;50.942;4.028;2023-05-29T11:27:47;19.00;99.90
21244;DHT22;10780;50.942;4.028;2023-05-29T11:30:14;18.90;99.90
21244;DHT22;10780;50.942;4.028;2023-05-29T11:32:40;18.70;99.90
21244;DHT22;10780;50.942;4.028;2023-05-29T11:35:10;18.80;99.90
21244;DHT22;10780;50.942;4.028;2023-05-29T11:37:39;19.10;99.90
21244;DHT22;10780;50.942;4.028;2023-05-29T11:40:08;19.00;99.90
21244;DHT22;10780;50.942;4.028;2023-05-29T11:42:47;19.10;99.90
21244;DHT22;10780;50.942;4.028;2023-05-29T11:45:20;19.20;99.90
21244;DHT22;10780;50.942;4.028;2023-05-29T11:47:58;19.10;99.90
21244;DHT22;10780;50.942;4.028;2023-05-29T11:50:26;18.80;99.90
21244;DHT22;10780;50.942;4.028;2023-05-29T11:52:52;19.10;99.90
21244;DHT22;10780;50.942;4.028;2023-05-29T11:55:19;19.40;99.90
21244;DHT22;10780;50.942;4.028;2023-05-29T11:57:46;19.60;99.90
21244;DHT22;10780;50.942;4.028;2023-05-29T12:00:18;19.60;99.90
21244;DHT22;10780;50.942;4.028;2023-05-29T12:02:45;19.60;99.90
21244;DHT22;10780;50.942;4.028;2023-05-29T12:05:13;19.40;99.90
21244;DHT22;10780;50.942;4.028;2023-05-29T12:07:49;19.50;99.90
21244;DHT22;10780;50.942;4.028;2023-05-29T12:10:20;19.30;99.90
21244;DHT22;10780;50.942;4.028;2023-05-29T12:12:57;19.60;99.90
21244;DHT22;10780;50.942;4.028;2023-05-29T12:15:23;20.00;99.90
21244;DHT22;10780;50.942;4.028;2023-05-29T12:17:50;20.30;99.90
21244;DHT22;10780;50.942;4.028;2023-05-29T12:20:17;20.10;99.90
21244;DHT22;10780;50.942;4.028;2023-05-29T12:22:43;20.20;99.90
21244;DHT22;10780;50.942;4.028;2023-05-29T12:25:10;20.00;99.90
21244;DHT22;10780;50.942;4.028;2023-05-29T12:27:42;20.10;99.90
21244;DHT22;10780;50.942;4.028;2023-05-29T12:30:10;20.10;99.90
21244;DHT22;10780;50.942;4.028;2023-05-29T12:32:39;20.40;99.90
21244;DHT22;10780;50.942;4.028;2023-05-29T12:35:21;20.40;99.90
21244;DHT22;10780;50.942;4.028;2023-05-29T12:37:48;20.10;99.90
21244;DHT22;10780;50.942;4.028;2023-05-29T12:40:16;20.20;99.90
21244;DHT22;10780;50.942;4.028;2023-05-29T12:42:42;20.40;99.90
21244;DHT22;10780;50.942;4.028;2023-05-29T12:45:08;20.50;99.90
21244;DHT22;10780;50.942;4.028;2023-05-29T12:47:35;20.40;99.90
21244;DHT22;10780;50.942;4.028;2023-05-29T12:50:34;20.50;99.90
21244;DHT22;10780;50.942;4.028;2023-05-29T12:53:07;20.40;99.90
21244;DHT22;10780;50.942;4.028;2023-05-29T12:55:41;20.40;99.90
21244;DHT22;10780;50.942;4.028;2023-05-29T12:58:09;20.70;99.90
21244;DHT22;10780;50.942;4.028;2023-05-29T13:00:36;20.80;99.90
21244;DHT22;10780;50.942;4.028;2023-05-29T13:03:03;20.70;99.90
21244;DHT22;10780;50.942;4.028;2023-05-29T13:05:29;20.70;99.90
21244;DHT22;10780;50.942;4.028;2023-05-29T13:07:55;20.60;99.90
21244;DHT22;10780;50.942;4.028;2023-05-29T13:10:21;20.50;99.90
21244;DHT22;10780;50.942;4.028;2023-05-29T13:12:48;20.20;99.90
21244;DHT22;10780;50.942;4.028;2023-05-29T13:15:19;20.30;99.90
21244;DHT22;10780;50.942;4.028;2023-05-29T13:17:45;20.50;99.90
21244;DHT22;10780;50.942;4.028;2023-05-29T13:20:12;20.60;99.90
21244;DHT22;10780;50.942;4.028;2023-05-29T13:22:39;20.70;99.90
21244;DHT22;10780;50.942;4.028;2023-05-29T13:25:05;20.80;99.90
21244;DHT22;10780;50.942;4.028;2023-05-29T13:27:42;20.80;99.90
21244;DHT22;10780;50.942;4.028;2023-05-29T13:30:08;20.80;99.90
21244;DHT22;10780;50.942;4.028;2023-05-29T13:32:34;20.70;99.90
21244;DHT22;10780;50.942;4.028;2023-05-29T13:35:00;21.10;99.90
21244;DHT22;10780;50.942;4.028;2023-05-29T13:37:26;21.10;99.90
21244;DHT22;10780;50.942;4.028;2023-05-29T13:39:53;21.40;99.90
21244;DHT22;10780;50.942;4.028;2023-05-29T13:42:19;21.70;99.90
21244;DHT22;10780;50.942;4.028;2023-05-29T13:44:46;21.90;99.90
21244;DHT22;10780;50.942;4.028;2023-05-29T13:47:12;22.00;99.90
21244;DHT22;10780;50.942;4.028;2023-05-29T13:49:38;22.10;99.90
21244;DHT22;10780;50.942;4.028;2023-05-29T13:52:04;22.30;99.90
21244;DHT22;10780;50.942;4.028;2023-05-29T13:54:29;21.90;99.90
21244;DHT22;10780;50.942;4.028;2023-05-29T13:56:57;21.80;99.90
21244;DHT22;10780;50.942;4.028;2023-05-29T13:59:24;21.90;99.90
21244;DHT22;10780;50.942;4.028;2023-05-29T14:01:50;22.40;99.90
21244;DHT22;10780;50.942;4.028;2023-05-29T14:04:16;22.70;99.90
21244;DHT22;10780;50.942;4.028;2023-05-29T14:06:41;23.10;99.90
21244;DHT22;10780;50.942;4.028;2023-05-29T14:09:07;23.40;99.90
21244;DHT22;10780;50.942;4.028;2023-05-29T14:11:36;23.00;99.90
21244;DHT22;10780;50.942;4.028;2023-05-29T14:14:03;22.60;99.90
21244;DHT22;10780;50.942;4.028;2023-05-29T14:16:29;22.40;99.90
21244;DHT22;10780;50.942;4.028;2023-05-29T14:18:55;22.20;99.90
21244;DHT22;10780;50.942;4.028;2023-05-29T14:21:20;21.90;99.90
21244;DHT22;10780;50.942;4.028;2023-05-29T14:23:46;22.10;99.90
21244;DHT22;10780;50.942;4.028;2023-05-29T14:26:12;22.60;99.90
21244;DHT22;10780;50.942;4.028;2023-05-29T14:28:38;23.10;99.90
21244;DHT22;10780;50.942;4.028;2023-05-29T14:31:04;23.90;99.90
21244;DHT22;10780;50.942;4.028;2023-05-29T14:33:31;24.10;99.90
21244;DHT22;10780;50.942;4.028;2023-05-29T14:35:56;24.20;99.90
21244;DHT22;10780;50.942;4.028;2023-05-29T14:38:22;23.60;99.90
21244;DHT22;10780;50.942;4.028;2023-05-29T14:40:48;23.20;99.90
21244;DHT22;10780;50.942;4.028;2023-05-29T14:43:14;23.30;99.90
21244;DHT22;10780;50.942;4.028;2023-05-29T14:45:39;23.40;99.90
21244;DHT22;10780;50.942;4.028;2023-05-29T14:48:05;23.50;99.90
21244;DHT22;10780;50.942;4.028;2023-05-29T14:50:31;23.50;99.90
21244;DHT22;10780;50.942;4.028;2023-05-29T14:52:57;24.00;99.90
21244;DHT22;10780;50.942;4.028;2023-05-29T14:55:22;24.40;99.90
21244;DHT22;10780;50.942;4.028;2023-05-29T14:57:48;24.80;99.90
21244;DHT22;10780;50.942;4.028;2023-05-29T15:00:14;24.80;99.90
21244;DHT22;10780;50.942;4.028;2023-05-29T15:02:40;25.00;99.90
21244;DHT22;10780;50.942;4.028;2023-05-29T15:05:06;25.00;99.90
21244;DHT22;10780;50.942;4.028;2023-05-29T15:07:33;24.40;99.90
21244;DHT22;10780;50.942;4.028;2023-05-29T15:10:05;24.20;99.90
21244;DHT22;10780;50.942;4.028;2023-05-29T15:12:32;23.80;99.90
21244;DHT22;10780;50.942;4.028;2023-05-29T15:14:58;23.20;99.90
21244;DHT22;10780;50.942;4.028;2023-05-29T15:17:24;23.00;99.90
21244;DHT22;10780;50.942;4.028;2023-05-29T15:19:49;22.60;99.90
21244;DHT22;10780;50.942;4.028;2023-05-29T15:22:15;22.70;99.90
21244;DHT22;10780;50.942;4.028;2023-05-29T15:24:41;22.90;99.90
21244;DHT22;10780;50.942;4.028;2023-05-29T15:27:07;22.60;99.90
21244;DHT22;10780;50.942;4.028;2023-05-29T15:29:34;22.30;99.90
21244;DHT22;10780;50.942;4.028;2023-05-29T15:32:00;22.50;99.90
21244;DHT22;10780;50.942;4.028;2023-05-29T15:34:26;22.80;99.90
21244;DHT22;10780;50.942;4.028;2023-05-29T15:36:52;22.80;99.90
21244;DHT22;10780;50.942;4.028;2023-05-29T15:39:18;23.00;99.90
21244;DHT22;10780;50.942;4.028;2023-05-29T15:41:43;23.00;99.90
21244;DHT22;10780;50.942;4.028;2023-05-29T15:44:09;22.80;99.90
21244;DHT22;10780;50.942;4.028;2023-05-29T15:46:34;23.00;99.90
21244;DHT22;10780;50.942;4.028;2023-05-29T15:49:00;22.80;99.90
21244;DHT22;10780;50.942;4.028;2023-05-29T15:51:26;22.80;99.90
21244;DHT22;10780;50.942;4.028;2023-05-29T15:53:52;22.40;99.90
21244;DHT22;10780;50.942;4.028;2023-05-29T15:56:18;22.00;99.90
21244;DHT22;10780;50.942;4.028;2023-05-29T15:58:44;21.90;99.90
21244;DHT22;10780;50.942;4.028;2023-05-29T16:01:10;21.90;99.90
21244;DHT22;10780;50.942;4.028;2023-05-29T16:03:36;21.80;99.90